Boca Raton, FL (33427)

2:18 PM EDT on May 06, 2015 (GMT -0400)
Boca Surf Cam . Com | | Change Station
CLOSE
Current Station
Personal Weather Station
Location: Boca Raton, FL
Elevation: 26 ft
Nearby Weather Stations

Elev 26 ft 26.35 °N, 80.07 °W | Updated 10 minutes ago

Overcast
Overcast
82.6 °F
Feels Like 87 °F
N
4.7
Wind Variable Wind from East

Today
High -- | Low -- °F
--% Chance of Precip.
Yesterday
High -- | Low -- °F
Precip. -- in
6:39 AM 7:54 PM
Waning Gibbous, 93% visible
Pressure 30.03 in
Visibility 10.0 miles
Clouds Few 4500 ft
Scattered Clouds 5500 ft
Scattered Clouds 6500 ft
Heat Index 87 °F
Dew Point 70 °F
Humidity 66%
Rainfall 0.22 in
Snow Depth Not available.
UV 12 out of 12
Pollen 4.50 out of 12
Air Quality Not available.
Flu Activity Local Activity
METAR KPMP 061753Z 01008G16KT 10SM FEW045 SCT055 SCT065 26/18 A3002 RMK AO2 RAB05E21 SLP167 P0000 60000 T02610183 10272 20206 58007

More Conditions Fewer Conditions

Pressure 30.03 in
Visibility 10.0 miles
Clouds Few 4500 ft
Scattered Clouds 5500 ft
Scattered Clouds 6500 ft
Heat Index 87 °F
Dew Point 70 °F
Humidity 66%
Rainfall 0.22 in
Snow Depth Not available.
UV 12 out of 12
Pollen 4.50 out of 12
Air Quality Not available.
Flu Activity Local Activity
METAR KPMP 061753Z 01008G16KT 10SM FEW045 SCT055 SCT065 26/18 A3002 RMK AO2 RAB05E21 SLP167 P0000 60000 T02610183 10272 20206 58007

More Conditions Fewer Conditions

The National Hurricane Center is watching an area of disturbed weather just east of Florida for development. There is a 60% chance of intensification over the next 2 days and this system could become the first named tropical storm of the year. Many atmospheric models take the system close to the coasts of South Carolina and North Carolina later this week, but will have to wait for more information to be more confident in its track.

10-Day Weather Forecast

Almanac

Astronomy

May. 06, 2015 Rise Set
Actual Time
Civil Twilight
Nautical Twilight
Astronomical Twilight
Moon
Length of Visible Light
Length of Day
Tomorrow will be .
, % of the Moon is Illuminated

Today's Extremes

State Highs State Lows

Community

WunderPhotos

Upload Photos

1,818,961 photos uploaded!

WunderBlogs® & News

Nearby

Air Quality

  Air Quality AQ Index Pollutant
Not available.

Snow Depth

Station Depth Elevation

Earthquake Activity

City Distance Mag. Time & Date
Minimum magnitude displayed is 2.5.

Coastal Water Temperatures

Place Temperature

Stations

Nearby Weather Stations

Station Location Temp. Windchill Dew Point Humidity Wind Precip. Elev Updated Type